Time;durP1;ratioP1;P1;durP2;ratioP2;P2;SDS_P1;SDS_P2;PMS_P1;PMS_P2;Temp;Humidity;BMP_temperature;BMP_pressure;BME280_temperature;BME280_humidity;BME280_pressure;Samples;Min_cycle;Max_cycle;Signal;HPM_P1;HPM_P2
2021/04/20 00:00:29;;;;;;;5.35;3.38;;;;;;;1.92;100.00;100115.84;5113731;28;20051;-84
2021/04/20 00:03:35;;;;;;;4.10;2.75;;;;;;;1.87;100.00;100107.25;5113475;28;20054;-83
2021/04/20 00:06:38;;;;;;;1.58;1.45;;;;;;;1.87;100.00;100112.75;5101570;28;20054;-85
2021/04/20 00:09:43;;;;;;;6.55;3.40;;;;;;;1.84;100.00;100113.59;5103010;28;20133;-85
2021/04/20 00:12:48;;;;;;;3.53;2.55;;;;;;;1.78;100.00;100101.47;5101276;28;20066;-85
2021/04/20 00:15:52;;;;;;;2.30;2.20;;;;;;;1.75;100.00;100102.31;5101297;28;20050;-84
2021/04/20 00:18:57;;;;;;;3.72;2.80;;;;;;;1.73;100.00;100104.69;5100840;28;20071;-85
2021/04/20 00:22:01;;;;;;;3.10;2.92;;;;;;;1.69;100.00;100103.97;5100350;28;20528;-84
2021/04/20 00:25:05;;;;;;;10.07;4.65;;;;;;;1.67;100.00;100098.09;5100665;28;20054;-85
2021/04/20 00:28:09;;;;;;;3.42;3.13;;;;;;;1.63;100.00;100102.84;5100705;28;20048;-84
2021/04/20 00:31:12;;;;;;;4.22;3.90;;;;;;;1.59;100.00;100102.88;5100548;28;20429;-85
2021/04/20 00:34:16;;;;;;;2.13;2.05;;;;;;;1.57;100.00;100097.03;5099816;28;20047;-84
2021/04/20 00:37:19;;;;;;;9.30;3.45;;;;;;;1.52;100.00;100098.25;5112224;28;20055;-83
2021/04/20 00:40:23;;;;;;;6.35;2.55;;;;;;;1.54;100.00;100095.09;5112400;28;20051;-85
2021/04/20 00:43:41;;;;;;;6.45;3.63;;;;;;;1.53;100.00;100094.34;5100094;28;20050;-84
2021/04/20 00:46:45;;;;;;;3.83;3.47;;;;;;;1.51;100.00;100096.72;5112836;28;20058;-84
2021/04/20 00:49:48;;;;;;;7.97;2.72;;;;;;;1.51;100.00;100095.94;5099644;28;20409;-84
2021/04/20 00:52:52;;;;;;;10.02;3.28;;;;;;;1.49;100.00;100092.81;5111414;28;20059;-84
2021/04/20 00:55:56;;;;;;;6.25;3.63;;;;;;;1.46;100.00;100093.63;5111992;28;20133;-84
2021/04/20 00:58:59;;;;;;;4.32;3.20;;;;;;;1.41;100.00;100085.81;5111560;28;20054;-84
2021/04/20 01:02:02;;;;;;;6.03;3.22;;;;;;;1.41;100.00;100092.09;5099434;28;20071;-84
2021/04/20 01:05:10;;;;;;;5.18;2.72;;;;;;;1.39;100.00;100088.19;5099209;28;20540;-84
2021/04/20 01:08:15;;;;;;;7.28;4.50;;;;;;;1.34;100.00;100088.66;5099015;28;20055;-84
2021/04/20 01:11:20;;;;;;;8.43;3.53;;;;;;;1.32;100.00;100094.53;5099226;28;20059;-84
2021/04/20 01:14:24;;;;;;;6.25;3.25;;;;;;;1.29;100.00;100084.38;5111177;28;20051;-84
2021/04/20 01:17:28;;;;;;;2.70;2.53;;;;;;;1.28;100.00;100088.31;5112670;28;20055;-86
2021/04/20 01:20:31;;;;;;;4.80;3.58;;;;;;;1.25;100.00;100089.13;5100665;28;20054;-86
2021/04/20 01:24:07;;;;;;;3.63;2.08;;;;;;;1.24;100.00;100097.75;5112821;28;20148;-85
2021/04/20 01:27:12;;;;;;;4.20;2.83;;;;;;;1.19;100.00;100085.25;5099932;28;20054;-85
2021/04/20 01:30:15;;;;;;;4.05;2.83;;;;;;;1.19;100.00;100093.47;5099654;28;20079;-86
2021/04/20 01:33:19;;;;;;;10.48;4.10;;;;;;;1.17;100.00;100101.34;5112076;28;20067;-85
2021/04/20 01:36:25;;;;;;;8.20;3.13;;;;;;;1.17;100.00;100104.09;5099205;28;20113;-86
2021/04/20 01:39:28;;;;;;;3.05;2.85;;;;;;;1.15;100.00;100100.22;5100093;28;20051;-86
2021/04/20 01:42:33;;;;;;;3.17;2.65;;;;;;;1.13;100.00;100097.06;5100639;28;20055;-86
2021/04/20 01:45:36;;;;;;;6.72;3.75;;;;;;;1.08;100.00;100095.56;5099707;28;20051;-85
2021/04/20 01:48:41;;;;;;;5.70;3.58;;;;;;;1.03;100.00;100095.22;5112080;28;20059;-84
2021/04/20 01:51:44;;;;;;;4.00;2.75;;;;;;;1.02;100.00;100102.66;5098468;28;20106;-86
2021/04/20 01:54:47;;;;;;;5.10;2.70;;;;;;;0.99;100.00;100098.00;5073869;28;20055;-87
2021/04/20 01:57:55;;;;;;;4.72;2.45;;;;;;;0.96;100.00;100093.31;5078310;28;20047;-85
2021/04/20 02:01:03;;;;;;;3.38;2.42;;;;;;;0.94;100.00;100095.69;5077631;28;20531;-86
2021/04/20 02:04:08;;;;;;;17.35;4.43;;;;;;;0.94;100.00;100090.19;5077818;28;20070;-85
2021/04/20 02:07:13;;;;;;;12.43;4.38;;;;;;;0.94;100.00;100084.72;5077996;28;21043;-86
2021/04/20 02:10:16;;;;;;;5.30;3.83;;;;;;;0.97;100.00;100094.88;5078166;28;20039;-86
2021/04/20 02:13:20;;;;;;;8.13;3.72;;;;;;;0.95;100.00;100094.50;5076616;28;20051;-85
2021/04/20 02:16:24;;;;;;;6.93;3.55;;;;;;;0.91;100.00;100096.47;5088475;28;20047;-86
2021/04/20 02:19:29;;;;;;;3.88;2.95;;;;;;;0.85;100.00;100087.13;5075607;28;20046;-86
2021/04/20 02:22:44;;;;;;;5.38;3.05;;;;;;;0.86;100.00;100090.66;5076361;28;20039;-86
2021/04/20 02:25:49;;;;;;;6.90;2.95;;;;;;;0.81;100.00;100083.66;5077087;28;21100;-86
2021/04/20 02:28:57;;;;;;;8.57;2.55;;;;;;;0.78;100.00;100085.22;5087798;28;20047;-86
2021/04/20 02:32:00;;;;;;;9.15;4.90;;;;;;;0.76;100.00;100086.81;5075857;28;20051;-85
2021/04/20 02:35:07;;;;;;;3.33;3.03;;;;;;;0.70;100.00;100085.69;5075106;28;21073;-85
2021/04/20 02:38:14;;;;;;;8.52;4.85;;;;;;;0.69;100.00;100084.16;5074911;28;20043;-85
2021/04/20 02:41:19;;;;;;;9.02;3.85;;;;;;;0.67;100.00;100075.56;5086305;28;20966;-85
2021/04/20 02:44:22;;;;;;;5.07;4.65;;;;;;;0.65;100.00;100077.91;5078096;28;20357;-85
2021/04/20 02:47:28;;;;;;;4.60;3.20;;;;;;;0.61;100.00;100077.16;5089068;28;20047;-86
2021/04/20 02:50:32;;;;;;;3.22;3.03;;;;;;;0.56;100.00;100077.59;5077464;28;20625;-86
2021/04/20 02:53:36;;;;;;;5.80;3.22;;;;;;;0.56;100.00;100080.34;5076171;28;20062;-85
2021/04/20 02:56:40;;;;;;;3.85;2.97;;;;;;;0.52;100.00;100079.59;5079307;28;20038;-86
2021/04/20 02:59:44;;;;;;;6.28;2.97;;;;;;;0.52;100.00;100079.59;5080994;28;20043;-87
2021/04/20 03:02:52;;;;;;;3.95;2.88;;;;;;;0.53;100.00;100075.66;5079812;28;20047;-86
2021/04/20 03:06:01;;;;;;;3.20;2.95;;;;;;;0.53;100.00;100070.16;5068404;28;21113;-85
2021/04/20 03:09:05;;;;;;;3.97;3.67;;;;;;;0.52;100.00;100074.84;5079003;28;20047;-84
2021/04/20 03:12:09;;;;;;;7.00;4.65;;;;;;;0.49;100.00;100066.69;5092194;28;20055;-83
2021/04/20 03:15:15;;;;;;;2.47;2.38;;;;;;;0.47;100.00;100060.81;5079108;28;20585;-83
2021/04/20 03:18:19;;;;;;;3.05;2.85;;;;;;;0.43;100.00;100065.56;5092441;28;20055;-83
2021/04/20 03:21:24;;;;;;;9.13;3.78;;;;;;;0.48;100.00;100065.88;5090893;28;20125;-84
2021/04/20 03:24:33;;;;;;;3.80;2.92;;;;;;;0.44;100.00;100062.41;5078081;28;20046;-83
2021/04/20 03:27:49;;;;;;;7.18;4.22;;;;;;;0.49;100.00;100063.94;5079133;28;20843;-83
2021/04/20 03:30:54;;;;;;;3.42;3.13;;;;;;;0.51;100.00;100072.53;5102067;28;20058;-84
2021/04/20 03:34:18;;;;;;;5.78;3.10;;;;;;;0.55;100.00;100070.53;5101885;28;20109;-84
2021/04/20 03:37:30;;;;;;;9.45;2.58;;;;;;;0.59;100.00;100061.13;5113812;28;20055;-83
2021/04/20 03:40:36;;;;;;;3.25;2.95;;;;;;;0.68;100.00;100068.88;5101824;28;20049;-85
2021/04/20 03:43:42;;;;;;;11.32;4.15;;;;;;;0.80;100.00;100057.44;5102090;28;20055;-84
2021/04/20 03:46:49;;;;;;;7.18;2.38;;;;;;;0.91;100.00;100060.84;5102016;28;20051;-84
2021/04/20 03:49:56;;;;;;;2.97;2.40;;;;;;;0.99;100.00;100059.63;5114180;28;20527;-84
2021/04/20 03:53:06;;;;;;;4.50;2.80;;;;;;;1.06;100.00;100054.03;5101510;28;20059;-83
2021/04/20 03:56:11;;;;;;;3.92;3.13;;;;;;;1.17;100.00;100054.72;5101883;28;20409;-83
2021/04/20 03:59:17;;;;;;;8.63;2.72;;;;;;;1.25;100.00;100056.22;5101474;28;20054;-84
2021/04/20 04:02:21;;;;;;;3.03;2.40;;;;;;;1.31;100.00;100060.06;5100618;28;20043;-84
2021/04/20 04:05:27;;;;;;;9.35;3.47;;;;;;;1.40;100.00;100057.63;5114142;28;20065;-84
2021/04/20 04:08:35;;;;;;;3.67;2.47;;;;;;;1.44;100.00;100058.38;5100895;28;20512;-84
2021/04/20 04:11:45;;;;;;;7.28;3.13;;;;;;;1.50;100.00;100056.72;5113785;28;20055;-84
2021/04/20 04:14:49;;;;;;;16.70;4.65;;;;;;;1.56;100.00;100068.00;5101308;28;20409;-84
2021/04/20 04:17:56;;;;;;;6.55;3.20;;;;;;;1.59;100.00;100064.47;5101159;28;20516;-84
2021/04/20 04:21:03;;;;;;;39.63;3.95;;;;;;;1.63;100.00;100065.19;5100945;28;20421;-83
2021/04/20 04:24:09;;;;;;;10.55;3.22;;;;;;;1.65;100.00;100068.31;5101030;28;20397;-83
2021/04/20 04:27:14;;;;;;;26.65;3.20;;;;;;;1.68;100.00;100063.97;5113623;28;20054;-83
2021/04/20 04:30:21;;;;;;;12.15;3.42;;;;;;;1.69;100.00;100055.31;5100322;28;20508;-85
2021/04/20 04:33:25;;;;;;;12.43;4.32;;;;;;;1.67;100.00;100057.69;5100830;28;20058;-84
2021/04/20 04:36:29;;;;;;;5.32;3.13;;;;;;;1.69;100.00;100060.06;5100981;28;20050;-84
2021/04/20 04:39:34;;;;;;;4.40;3.90;;;;;;;1.66;100.00;100052.63;5100659;28;20050;-84
2021/04/20 04:42:38;;;;;;;4.60;3.45;;;;;;;1.67;100.00;100054.19;5100907;28;20062;-84
2021/04/20 04:45:42;;;;;;;2.45;2.25;;;;;;;1.64;100.00;100049.50;5100950;28;20058;-87
2021/04/20 04:48:46;;;;;;;4.28;3.50;;;;;;;1.60;100.00;100057.81;5100907;28;20055;-85
2021/04/20 04:51:50;;;;;;;3.00;2.83;;;;;;;1.58;100.00;100056.66;5100186;28;20078;-84
2021/04/20 04:54:54;;;;;;;6.00;2.63;;;;;;;1.51;100.00;100058.28;5100863;28;20067;-88
2021/04/20 04:57:59;;;;;;;5.57;2.92;;;;;;;1.52;100.00;100059.84;5106344;28;20054;-90
2021/04/20 05:01:04;;;;;;;5.93;3.50;;;;;;;1.50;100.00;100055.94;5112179;28;20070;-90
2021/04/20 05:04:09;;;;;;;6.03;3.75;;;;;;;1.47;100.00;100056.78;5105312;28;20047;-90
2021/04/20 05:07:13;;;;;;;5.28;3.85;;;;;;;1.46;100.00;100061.47;5103210;28;20055;-90
2021/04/20 05:10:17;;;;;;;5.32;3.88;;;;;;;1.46;100.00;100061.47;5099006;28;20070;-84
2021/04/20 05:13:20;;;;;;;5.32;3.70;;;;;;;1.42;100.00;100068.97;5099191;28;20058;-84
2021/04/20 05:16:24;;;;;;;12.43;3.67;;;;;;;1.41;100.00;100058.38;5113011;28;20066;-83
2021/04/20 05:19:33;;;;;;;8.15;3.67;;;;;;;1.41;100.00;100070.16;5112692;28;20054;-84
2021/04/20 05:22:36;;;;;;;6.47;4.55;;;;;;;1.41;100.00;100064.66;5099362;28;20043;-85
2021/04/20 05:25:40;;;;;;;6.72;3.83;;;;;;;1.42;100.00;100071.72;5099503;28;20078;-84
2021/04/20 05:28:43;;;;;;;7.88;4.97;;;;;;;1.45;100.00;100065.38;5099313;28;20050;-83
2021/04/20 05:31:47;;;;;;;6.75;3.83;;;;;;;1.50;100.00;100078.69;5112244;28;20059;-85
2021/04/20 05:34:51;;;;;;;17.90;5.97;;;;;;;1.51;100.00;100068.47;5098675;28;20532;-84
2021/04/20 05:37:55;;;;;;;10.98;5.10;;;;;;;1.52;100.00;100065.31;5099074;28;20048;-84
2021/04/20 05:40:58;;;;;;;5.78;3.75;;;;;;;1.56;100.00;100070.75;5099179;28;20401;-84
2021/04/20 05:44:03;;;;;;;8.50;3.90;;;;;;;1.62;100.00;100079.34;5098536;28;20050;-83
2021/04/20 05:47:07;;;;;;;22.20;6.13;;;;;;;1.68;100.00;100077.69;5112210;28;20054;-85
2021/04/20 05:50:25;;;;;;;12.32;6.00;;;;;;;1.72;100.00;100081.97;5099180;28;20054;-85
2021/04/20 05:53:28;;;;;;;16.23;6.30;;;;;;;1.78;100.00;100083.06;5099290;28;20067;-86
2021/04/20 05:56:32;;;;;;;35.20;6.38;;;;;;;1.82;100.00;100081.03;5112935;28;20051;-85
2021/04/20 05:59:35;;;;;;;23.88;6.10;;;;;;;1.87;100.00;100079.81;5111620;28;20049;-85
2021/04/20 06:02:40;;;;;;;34.53;10.18;;;;;;;1.96;100.00;100085.59;5099436;28;20059;-85
2021/04/20 06:05:45;;;;;;;12.82;6.05;;;;;;;2.05;100.00;100091.34;5098441;28;20048;-85
2021/04/20 06:08:53;;;;;;;14.60;4.40;;;;;;;2.10;100.00;100088.16;5098733;28;20046;-84
2021/04/20 06:11:57;;;;;;;11.43;4.68;;;;;;;2.18;100.00;100090.41;5098822;28;20532;-84
2021/04/20 06:15:00;;;;;;;3.33;3.00;;;;;;;2.27;100.00;100092.63;5098904;28;20047;-85
2021/04/20 06:18:04;;;;;;;8.20;4.45;;;;;;;2.34;100.00;100092.50;5112808;28;20145;-84
2021/04/20 06:21:09;;;;;;;7.05;6.18;;;;;;;2.42;100.00;100087.72;5102618;28;20047;-84
2021/04/20 06:24:14;;;;;;;33.50;6.07;;;;;;;2.53;100.00;100083.63;5102805;28;20059;-85
2021/04/20 06:27:18;;;;;;;10.05;5.55;;;;;;;2.64;100.00;100088.97;5102099;28;20054;-83
2021/04/20 06:30:22;;;;;;;14.82;4.95;;;;;;;2.78;100.00;100092.25;5103715;28;20055;-85
2021/04/20 06:33:26;;;;;;;14.18;6.68;;;;;;;2.91;100.00;100089.69;5103376;28;20524;-86
2021/04/20 06:36:30;;;;;;;14.20;5.95;;;;;;;3.06;100.00;100094.53;5103317;28;20054;-83
2021/04/20 06:39:34;;;;;;;11.07;5.68;;;;;;;3.21;100.00;100095.06;5115025;28;20051;-83
2021/04/20 06:42:45;;;;;;;6.15;4.63;;;;;;;3.36;100.00;100098.34;5114656;28;20062;-84
2021/04/20 06:46:03;;;;;;;;;;;;;;;3.51;100.00;100094.91;5095107;28;20516;-83
2021/04/20 06:49:17;;;;;;;9.10;4.55;;;;;;;3.74;100.00;100097.63;5081812;28;19916;-84
2021/04/20 06:52:32;;;;;;;13.35;4.82;;;;;;;4.01;100.00;100093.94;5092433;28;20059;-82
2021/04/20 06:55:45;;;;;;;17.50;5.97;;;;;;;4.35;100.00;100094.41;5095599;28;20075;-84
2021/04/20 06:59:16;;;;;;;12.15;4.95;;;;;;;4.61;100.00;100099.69;5083830;28;20520;-84
2021/04/20 07:02:22;;;;;;;22.92;5.43;;;;;;;4.76;100.00;100091.09;5081938;28;20047;-85
2021/04/20 07:05:29;;;;;;;14.88;5.78;;;;;;;4.91;100.00;100097.81;5093926;28;20082;-83
2021/04/20 07:08:43;;;;;;;12.05;5.43;;;;;;;5.04;100.00;100091.19;5080401;28;20078;-84
2021/04/20 07:11:48;;;;;;;6.63;5.32;;;;;;;5.20;100.00;100087.59;5093180;28;20071;-86
2021/04/20 07:14:55;;;;;;;14.63;7.07;;;;;;;5.36;100.00;100085.63;5081147;28;20051;-83
2021/04/20 07:18:29;;;;;;;12.38;5.35;;;;;;;5.65;100.00;100080.09;5081790;28;20055;-84
2021/04/20 07:22:07;;;;;;;7.25;4.32;;;;;;;5.87;100.00;100086.59;5080411;28;20055;-84
2021/04/20 07:25:44;;;;;;;7.35;3.88;;;;;;;6.10;100.00;100082.81;5081180;28;20058;-84
2021/04/20 07:29:11;;;;;;;10.27;4.05;;;;;;;6.42;100.00;100081.84;5080406;28;20051;-85
2021/04/20 07:32:21;;;;;;;12.15;5.07;;;;;;;6.62;100.00;100076.88;5082131;28;20059;-83
2021/04/20 07:35:47;;;;;;;10.93;4.70;;;;;;;6.79;100.00;100083.84;5080173;28;20075;-83
2021/04/20 07:39:07;;;;;;;14.75;4.55;;;;;;;7.08;100.00;100083.69;5093519;28;20059;-83
2021/04/20 07:42:11;;;;;;;18.35;4.80;;;;;;;7.38;100.00;100085.81;5094011;28;20070;-83
2021/04/20 07:45:29;;;;;;;6.85;4.57;;;;;;;7.56;100.00;100078.44;5098219;28;20055;-85
2021/04/20 07:48:41;;;;;;;13.05;5.35;;;;;;;7.76;100.00;100072.59;5117303;28;20071;-85
2021/04/20 07:51:44;;;;;;;15.88;4.68;;;;;;;8.00;100.00;100075.66;5101913;28;20055;-84
2021/04/20 07:55:09;;;;;;;15.10;4.53;;;;;;;8.31;100.00;100080.06;5112693;28;20054;-85
2021/04/20 07:58:19;;;;;;;6.20;4.05;;;;;;;8.56;100.00;100081.84;5113458;28;20055;-85
2021/04/20 08:01:33;;;;;;;20.10;4.60;;;;;;;8.80;100.00;100074.56;5099581;28;20055;-84
2021/04/20 08:04:46;;;;;;;11.35;4.47;;;;;;;9.05;100.00;100068.00;5100537;28;20520;-85
2021/04/20 08:07:56;;;;;;;8.88;4.68;;;;;;;9.37;100.00;100069.41;5100690;28;20054;-85
2021/04/20 08:11:09;;;;;;;14.73;4.03;;;;;;;9.64;100.00;100066.63;5099423;28;20066;-85
2021/04/20 08:14:25;;;;;;;9.77;4.82;;;;;;;9.84;100.00;100058.59;5098110;28;20047;-86
2021/04/20 08:17:38;;;;;;;15.15;5.28;;;;;;;10.06;100.00;100061.97;5113722;28;20436;-84
2021/04/20 08:20:43;;;;;;;18.83;5.57;;;;;;;10.28;100.00;100059.00;5099281;28;20044;-86
2021/04/20 08:23:50;;;;;;;14.35;4.25;;;;;;;10.44;100.00;100064.97;5111813;28;20052;-84
2021/04/20 08:27:01;;;;;;;12.77;4.03;;;;;;;10.56;100.00;100057.66;5097708;28;20035;-84
2021/04/20 08:30:27;;;;;;;14.43;4.37;;;;;;;10.64;100.00;100047.72;5098481;28;20394;-84
2021/04/20 08:33:37;;;;;;;11.70;4.00;;;;;;;10.71;100.00;100054.97;5075037;28;20502;-84
2021/04/20 08:36:58;;;;;;;12.50;4.60;;;;;;;10.84;100.00;100049.94;5080294;28;20052;-84
2021/04/20 08:40:08;;;;;;;17.70;5.60;;;;;;;11.01;100.00;100049.06;5092578;28;20048;-84
2021/04/20 08:43:26;;;;;;;13.98;5.35;;;;;;;11.14;100.00;100057.19;5082537;28;20044;-84
2021/04/20 08:46:47;;;;;;;17.23;4.47;;;;;;;11.30;100.00;100054.00;5079041;28;20052;-84
2021/04/20 08:49:53;;;;;;;;;;;;;;;11.46;100.00;100056.34;5091984;28;20044;-85
2021/04/20 08:53:39;;;;;;;11.75;4.45;;;;;;;11.60;100.00;100055.63;5091685;28;19920;-84
2021/04/20 08:57:12;;;;;;;10.65;4.03;;;;;;;11.75;100.00;100061.25;5077908;28;20413;-86
2021/04/20 09:00:27;;;;;;;10.23;4.65;;;;;;;11.87;100.00;100058.19;5079873;28;20048;-84
2021/04/20 09:03:52;;;;;;;12.82;4.57;;;;;;;12.05;100.00;100069.19;5079626;28;20048;-84
2021/04/20 09:07:01;;;;;;;13.32;4.47;;;;;;;12.25;100.00;100064.94;5078861;28;20047;-85
2021/04/20 09:10:12;;;;;;;8.43;4.20;;;;;;;12.43;100.00;100062.72;5078931;28;20052;-84
2021/04/20 09:13:21;;;;;;;15.15;4.97;;;;;;;12.60;100.00;100058.19;5091536;28;20055;-84
2021/04/20 09:16:36;;;;;;;11.45;5.68;;;;;;;12.88;100.00;100055.81;5079167;28;20044;-84
2021/04/20 09:19:49;;;;;;;11.63;4.35;;;;;;;13.09;100.00;100057.41;5078872;28;20490;-84
2021/04/20 09:23:14;;;;;;;19.00;5.75;;;;;;;13.27;100.00;100059.94;5078713;28;20040;-84
2021/04/20 09:26:34;;;;;;;9.00;3.97;;;;;;;13.48;100.00;100058.66;5090640;28;20417;-85
2021/04/20 09:29:57;;;;;;;15.88;5.35;;;;;;;13.64;100.00;100063.66;5078826;28;20059;-85
2021/04/20 09:33:12;;;;;;;15.90;3.80;;;;;;;13.84;100.00;100062.13;5092964;28;20040;-84
2021/04/20 09:36:16;;;;;;;10.93;4.15;;;;;;;13.94;100.00;100055.09;5078117;28;20052;-85
2021/04/20 09:39:21;;;;;;;18.55;4.97;;;;;;;14.06;100.00;100062.34;5077691;28;20048;-85
2021/04/20 09:42:27;;;;;;;16.30;3.85;;;;;;;14.08;100.00;100065.41;5091407;28;20047;-84
2021/04/20 09:45:31;;;;;;;11.65;4.35;;;;;;;14.19;100.00;100057.09;5109960;28;20043;-84
2021/04/20 09:48:41;;;;;;;15.75;4.43;;;;;;;14.29;100.00;100055.72;5111350;28;20039;-84
2021/04/20 09:51:55;;;;;;;23.13;4.50;;;;;;;14.42;100.00;100050.47;5098528;28;20036;-84
2021/04/20 09:55:07;;;;;;;10.57;3.42;;;;;;;14.56;100.00;100055.16;5098656;28;20047;-85
2021/04/20 09:58:14;;;;;;;12.32;3.95;;;;;;;14.72;100.00;100048.94;5110728;28;20047;-84
2021/04/20 10:01:36;;;;;;;14.55;4.68;;;;;;;14.74;100.00;100045.63;5111892;28;20047;-84
2021/04/20 10:04:42;;;;;;;3.30;2.05;;;;;;;14.88;100.00;100048.25;5110317;28;20047;-82
2021/04/20 10:08:29;;;;;;;10.23;3.08;;;;;;;15.03;100.00;100048.84;5110717;28;20123;-82
2021/04/20 10:12:02;;;;;;;7.20;2.53;;;;;;;15.23;100.00;100049.97;5110243;28;20051;-84
2021/04/20 10:15:16;;;;;;;7.43;2.92;;;;;;;15.18;100.00;100049.44;5099740;28;20050;-84
2021/04/20 10:18:32;;;;;;;10.13;3.67;;;;;;;15.29;100.00;100053.59;5112615;28;20062;-87
2021/04/20 10:21:35;;;;;;;9.30;3.17;;;;;;;15.31;100.00;100051.03;5110529;28;20405;-85
2021/04/20 10:24:48;;;;;;;11.07;3.72;;;;;;;15.39;100.00;100040.88;5110323;28;20066;-83
2021/04/20 10:28:00;;;;;;;13.00;4.80;;;;;;;15.43;100.00;100044.19;5110885;28;20051;-82
2021/04/20 10:31:14;;;;;;;12.52;3.38;;;;;;;15.49;100.00;100042.19;5111114;28;20052;-82
2021/04/20 10:34:19;;;;;;;7.40;3.42;;;;;;;15.65;100.00;100047.13;5109368;28;20051;-83
2021/04/20 10:37:33;;;;;;;11.40;4.40;;;;;;;15.61;100.00;100047.38;5098019;28;20063;-82
2021/04/20 10:40:37;;;;;;;9.45;3.92;;;;;;;15.28;100.00;100043.63;5109898;28;20416;-82
2021/04/20 10:43:41;;;;;;;28.88;5.45;;;;;;;14.90;100.00;100044.97;5110122;28;20055;-84
2021/04/20 10:46:51;;;;;;;9.00;3.80;;;;;;;14.62;100.00;100041.97;5111000;28;20048;-83
2021/04/20 10:49:58;;;;;;;8.75;3.30;;;;;;;14.49;100.00;100044.41;5110683;28;20062;-83
2021/04/20 10:53:20;;;;;;;8.02;2.70;;;;;;;14.36;100.00;100038.44;5110438;28;20046;-83
2021/04/20 10:56:24;;;;;;;12.20;4.13;;;;;;;14.21;100.00;100037.78;5109658;28;20059;-82
2021/04/20 10:59:31;;;;;;;10.30;3.20;;;;;;;14.10;100.00;100035.63;5097577;28;20420;-80
2021/04/20 11:02:41;;;;;;;8.32;3.60;;;;;;;13.99;100.00;100040.38;5118004;28;20044;-81
2021/04/20 11:05:48;;;;;;;15.25;3.75;;;;;;;13.91;100.00;100040.03;5116875;28;20063;-82
2021/04/20 11:08:51;;;;;;;9.02;3.67;;;;;;;13.86;100.00;100031.59;5114602;28;20051;-80
2021/04/20 11:11:55;;;;;;;5.43;3.00;;;;;;;13.81;100.00;100032.31;5101295;28;20047;-81
2021/04/20 11:14:59;;;;;;;7.63;3.50;;;;;;;13.82;100.00;100040.19;5113888;27;20054;-79
2021/04/20 11:18:11;;;;;;;15.32;3.50;;;;;;;13.87;100.00;100027.53;5114609;28;20051;-82
2021/04/20 11:21:21;;;;;;;;;;;;;;;13.92;100.00;100035.22;5114532;28;20428;-81
2021/04/20 11:24:28;;;;;;;18.77;5.22;;;;;;;13.93;100.00;100020.72;5113535;28;19916;-80
2021/04/20 11:27:34;;;;;;;12.88;3.15;;;;;;;13.98;100.00;100034.00;5114219;28;20047;-80
2021/04/20 11:30:42;;;;;;;19.27;4.35;;;;;;;14.07;100.00;100024.69;5113650;28;20048;-82
2021/04/20 11:33:46;;;;;;;13.23;5.13;;;;;;;14.17;100.00;100028.81;5111846;28;20056;-82
2021/04/20 11:37:04;;;;;;;8.93;3.92;;;;;;;14.23;100.00;100022.00;5113312;28;20047;-81
2021/04/20 11:40:15;;;;;;;13.35;4.38;;;;;;;14.29;100.00;100020.03;5113176;28;20071;-80
2021/04/20 11:43:18;;;;;;;5.30;2.97;;;;;;;14.33;100.00;100019.84;5112459;28;20043;-80
2021/04/20 11:46:24;;;;;;;11.77;4.57;;;;;;;14.40;100.00;100020.13;5093503;28;20434;-80
2021/04/20 11:49:30;;;;;;;11.40;3.55;;;;;;;14.51;100.00;100022.25;5093459;28;20044;-83
2021/04/20 11:52:35;;;;;;;9.50;3.67;;;;;;;14.66;100.00;100024.94;5093011;28;20044;-81
2021/04/20 11:55:46;;;;;;;14.68;5.20;;;;;;;14.69;100.00;100027.50;5080416;28;20059;-80
2021/04/20 11:58:49;;;;;;;11.10;4.15;;;;;;;14.65;100.00;100024.16;5092419;28;20048;-80
2021/04/20 12:01:55;;;;;;;21.30;3.92;;;;;;;14.65;100.00;100020.56;5092864;28;20048;-81
2021/04/20 12:05:06;;;;;;;7.35;3.42;;;;;;;14.73;100.00;100018.84;5092372;28;20044;-81
2021/04/20 12:08:20;;;;;;;16.60;3.83;;;;;;;14.85;100.00;100021.22;5092810;28;20044;-80
2021/04/20 12:11:28;;;;;;;11.55;3.55;;;;;;;15.03;100.00;100020.03;5091209;28;20242;-82
2021/04/20 12:14:38;;;;;;;10.93;4.38;;;;;;;15.17;100.00;100019.09;5092383;28;20052;-82
2021/04/20 12:17:43;;;;;;;9.38;2.92;;;;;;;15.24;100.00;100006.63;5093126;28;20508;-83
2021/04/20 12:20:48;;;;;;;9.43;3.30;;;;;;;15.27;100.00;100014.78;5091749;28;20058;-84
2021/04/20 12:23:58;;;;;;;8.45;3.95;;;;;;;15.26;100.00;100009.69;5092082;28;20047;-86
2021/04/20 12:27:07;;;;;;;7.80;3.65;;;;;;;15.23;100.00;100005.06;5092879;28;20060;-83
2021/04/20 12:30:12;;;;;;;16.27;3.63;;;;;;;15.23;100.00;100013.50;5094333;28;20440;-84
2021/04/20 12:33:26;;;;;;;10.85;3.67;;;;;;;15.28;100.00;100021.94;5092857;28;20401;-83
2021/04/20 12:36:32;;;;;;;9.70;3.90;;;;;;;15.35;100.00;100017.91;5091049;28;20056;-84
2021/04/20 12:39:41;;;;;;;9.82;3.72;;;;;;;15.45;100.00;100010.81;5079294;28;20528;-82
2021/04/20 12:42:52;;;;;;;10.02;3.85;;;;;;;15.61;100.00;100007.28;5079124;28;20051;-83
2021/04/20 12:46:10;;;;;;;14.80;5.15;;;;;;;15.74;100.00;100010.41;5092206;28;20048;-83
2021/04/20 12:49:15;;;;;;;11.93;3.78;;;;;;;15.85;100.00;100010.41;5091597;28;20044;-83
2021/04/20 12:52:24;;;;;;;11.43;3.92;;;;;;;15.88;100.00;100012.97;5090680;28;20052;-83
2021/04/20 12:55:29;;;;;;;20.55;4.53;;;;;;;15.94;100.00;100012.97;5084789;28;20039;-83
2021/04/20 12:58:39;;;;;;;15.90;4.70;;;;;;;16.01;100.00;100011.69;5112587;28;20047;-84
2021/04/20 13:01:47;;;;;;;11.32;4.38;;;;;;;15.99;100.00;100009.41;5100166;28;20397;-82
2021/04/20 13:04:52;;;;;;;8.90;3.85;;;;;;;16.02;100.00;100007.63;5100382;28;20048;-82
2021/04/20 13:08:05;;;;;;;10.82;3.63;;;;;;;16.02;100.00;100011.22;5099630;28;20408;-82
2021/04/20 13:11:09;;;;;;;11.68;4.45;;;;;;;15.96;100.00;100001.97;5112035;28;20043;-83
2021/04/20 13:14:14;;;;;;;13.52;4.70;;;;;;;15.94;100.00;100001.72;5111715;28;20405;-83
2021/04/20 13:17:24;;;;;;;11.48;5.05;;;;;;;15.90;100.00;100001.22;5099084;28;20056;-82
2021/04/20 13:20:34;;;;;;;15.63;5.07;;;;;;;15.91;100.00;99999.94;5110758;28;20413;-82
2021/04/20 13:23:40;;;;;;;21.45;5.35;;;;;;;15.90;100.00;100001.22;5099790;28;20115;-85
2021/04/20 13:26:49;;;;;;;15.27;3.83;;;;;;;15.87;100.00;99993.81;5111537;28;20056;-85
2021/04/20 13:29:53;;;;;;;12.02;3.70;;;;;;;15.85;100.00;99999.19;5111015;28;20043;-79
2021/04/20 13:32:58;;;;;;;12.45;4.15;;;;;;;15.83;100.00;99993.31;5111885;28;20047;-85
2021/04/20 13:36:04;;;;;;;10.98;5.72;;;;;;;15.86;100.00;99989.47;5112756;28;20122;-86
2021/04/20 13:39:13;;;;;;;11.38;4.47;;;;;;;16.00;100.00;99988.47;5099440;28;20058;-87
2021/04/20 13:42:24;;;;;;;12.90;4.72;;;;;;;16.06;100.00;99992.06;5099233;28;20524;-85
2021/04/20 13:45:33;;;;;;;8.65;4.07;;;;;;;16.13;100.00;99985.94;5111672;28;20050;-85
2021/04/20 13:48:36;;;;;;;18.83;4.63;;;;;;;16.24;100.00;99985.16;5099038;28;20054;-84
2021/04/20 13:51:44;;;;;;;13.38;5.22;;;;;;;16.33;100.00;99980.03;5110899;28;20054;-84
2021/04/20 13:55:01;;;;;;;7.50;3.80;;;;;;;16.45;100.00;99984.38;5111553;28;20056;-85
2021/04/20 13:58:12;;;;;;;11.85;3.90;;;;;;;16.53;100.00;99979.78;5098717;28;20055;-85
2021/04/20 14:01:22;;;;;;;13.00;3.67;;;;;;;16.62;100.00;99979.53;5099421;28;20055;-84
2021/04/20 14:04:37;;;;;;;11.00;5.35;;;;;;;16.78;100.00;99977.19;5110573;28;20058;-84
2021/04/20 14:07:44;;;;;;;18.65;4.72;;;;;;;16.88;100.00;99982.00;5111408;28;20054;-84
2021/04/20 14:10:52;;;;;;;7.88;4.65;;;;;;;16.87;100.00;99980.47;5098499;28;20054;-84
2021/04/20 14:13:56;;;;;;;14.40;4.63;;;;;;;16.81;100.00;99973.31;5110910;28;20054;-85
2021/04/20 14:17:00;;;;;;;16.15;4.50;;;;;;;16.74;100.00;99973.88;5112166;28;20062;-84
2021/04/20 14:20:08;;;;;;;8.02;3.42;;;;;;;16.60;100.00;99973.66;5110484;28;20070;-84
2021/04/20 14:23:14;;;;;;;19.70;5.85;;;;;;;16.50;99.80;99978.00;5111358;28;20568;-84
2021/04/20 14:26:20;;;;;;;11.95;5.47;;;;;;;16.54;100.00;99978.53;5111231;28;20051;-84
2021/04/20 14:29:25;;;;;;;12.35;4.43;;;;;;;16.62;100.00;99975.94;5111275;28;20401;-84